Time;durP1;ratioP1;P1;durP2;ratioP2;P2;SDS_P1;SDS_P2;PMS_P1;PMS_P2;Temp;Humidity;BMP_temperature;BMP_pressure;BME280_temperature;BME280_humidity;BME280_pressure;Samples;Min_cycle;Max_cycle;Signal;HPM_P1;HPM_P2
2022/05/17 00:01:55;;;;;;;24.73;7.40;;;14.90;99.90;;;;;;5006456;28;20566;-81
2022/05/17 00:04:20;;;;;;;25.15;8.68;;;14.90;99.90;;;;;;5006400;28;20085;-80
2022/05/17 00:06:47;;;;;;;18.95;8.38;;;14.70;99.90;;;;;;5005530;28;20104;-78
2022/05/17 00:09:16;;;;;;;19.98;9.63;;;14.80;99.90;;;;;;5005609;28;20053;-80
2022/05/17 00:11:44;;;;;;;21.08;8.32;;;14.80;99.90;;;;;;5005490;28;20117;-80
2022/05/17 00:14:11;;;;;;;23.95;10.50;;;14.80;99.90;;;;;;4989143;28;20088;-79
2022/05/17 00:16:37;;;;;;;17.90;8.02;;;14.80;99.90;;;;;;5006813;28;20306;-80
2022/05/17 00:19:02;;;;;;;24.50;9.50;;;14.80;99.90;;;;;;5006384;28;20083;-79
2022/05/17 00:21:28;;;;;;;26.92;9.95;;;14.80;99.90;;;;;;5006367;28;20045;-80
2022/05/17 00:23:54;;;;;;;30.73;11.13;;;14.70;99.90;;;;;;5006270;28;20510;-81
2022/05/17 00:26:21;;;;;;;28.08;8.43;;;14.70;99.90;;;;;;5006102;28;20045;-76
2022/05/17 00:28:46;;;;;;;17.50;8.68;;;14.70;99.90;;;;;;5005996;28;20042;-78
2022/05/17 00:31:12;;;;;;;29.85;10.38;;;14.60;99.90;;;;;;5007170;28;20045;-80
2022/05/17 00:33:38;;;;;;;21.05;7.95;;;14.70;99.90;;;;;;5006917;28;20042;-81
2022/05/17 00:36:04;;;;;;;25.25;8.07;;;14.70;99.90;;;;;;5004849;28;20121;-78
2022/05/17 00:38:30;;;;;;;24.55;8.38;;;14.70;99.90;;;;;;5007422;28;20136;-80
2022/05/17 00:40:56;;;;;;;20.40;9.60;;;14.60;99.90;;;;;;5005709;28;20129;-79
2022/05/17 00:46:22;;;;;;;20.90;9.38;;;14.60;99.90;;;;;;5005239;28;20061;-81
2022/05/17 00:48:49;;;;;;;25.63;7.75;;;14.50;99.90;;;;;;5009573;28;20034;-80
2022/05/17 00:51:16;;;;;;;20.60;8.38;;;14.50;99.90;;;;;;5010683;28;20046;-81
2022/05/17 00:53:42;;;;;;;23.33;9.07;;;14.50;99.90;;;;;;5013136;28;20121;-80
2022/05/17 00:56:14;;;;;;;24.05;9.20;;;14.50;99.90;;;;;;5012770;28;20062;-78
2022/05/17 00:59:01;;;;;;;21.67;7.85;;;14.50;99.90;;;;;;5011620;28;20382;-79
2022/05/17 01:01:31;;;;;;;22.55;8.10;;;14.50;99.90;;;;;;5011734;28;20049;-79
2022/05/17 01:04:06;;;;;;;30.17;9.00;;;14.40;99.90;;;;;;5011741;28;20049;-80
2022/05/17 01:06:37;;;;;;;15.85;8.43;;;14.40;99.90;;;;;;5012318;28;20038;-81
2022/05/17 01:09:03;;;;;;;25.63;8.10;;;14.50;99.90;;;;;;5009573;28;20100;-78
2022/05/17 01:11:29;;;;;;;22.33;7.97;;;14.50;99.90;;;;;;5008725;28;20084;-80
2022/05/17 01:16:40;;;;;;;22.92;8.55;;;14.40;99.90;;;;;;5008047;28;20054;-80
2022/05/17 01:19:08;;;;;;;19.80;7.72;;;14.40;99.90;;;;;;5015517;28;20049;-79
2022/05/17 01:21:33;;;;;;;25.02;9.75;;;14.50;99.90;;;;;;4996892;28;20102;-81
2022/05/17 01:23:59;;;;;;;19.83;8.30;;;14.40;99.90;;;;;;5009619;28;20133;-80
2022/05/17 01:26:28;;;;;;;27.75;9.45;;;14.50;99.90;;;;;;5008526;28;20038;-80
2022/05/17 01:28:54;;;;;;;22.02;7.85;;;14.50;99.90;;;;;;5012465;28;20053;-80
2022/05/17 01:31:20;;;;;;;20.92;7.53;;;14.40;99.90;;;;;;5010793;28;20045;-77
2022/05/17 01:33:46;;;;;;;17.95;7.50;;;14.40;99.90;;;;;;5009542;28;20456;-75
2022/05/17 01:36:15;;;;;;;28.73;9.77;;;14.40;99.90;;;;;;5009093;28;20096;-79
2022/05/17 01:38:45;;;;;;;21.25;7.82;;;14.40;99.90;;;;;;5008428;28;20061;-79
2022/05/17 01:41:11;;;;;;;13.43;7.10;;;14.30;99.90;;;;;;5008477;28;20042;-80
2022/05/17 01:43:37;;;;;;;22.73;8.18;;;14.30;99.90;;;;;;5006289;28;20148;-78
2022/05/17 01:46:08;;;;;;;22.42;8.10;;;14.30;99.90;;;;;;5008431;28;20140;-77
2022/05/17 01:48:35;;;;;;;22.40;7.85;;;14.30;99.90;;;;;;5008895;28;20042;-80
2022/05/17 01:51:00;;;;;;;18.10;7.40;;;14.30;99.90;;;;;;5017388;23;20058;-75
2022/05/17 01:53:26;;;;;;;18.42;7.32;;;14.30;99.90;;;;;;5008244;28;20045;-80
2022/05/17 01:55:52;;;;;;;19.05;7.43;;;14.20;99.90;;;;;;5008663;28;20046;-81
2022/05/17 01:58:17;;;;;;;21.02;8.23;;;14.30;99.90;;;;;;5007461;28;20041;-81
2022/05/17 02:00:45;;;;;;;26.70;9.38;;;14.30;99.90;;;;;;5008668;28;20080;-81
2022/05/17 02:03:10;;;;;;;19.08;7.47;;;14.20;99.90;;;;;;5008048;28;20046;-79
2022/05/17 02:05:36;;;;;;;16.55;7.10;;;14.10;99.90;;;;;;5008485;28;20290;-80
2022/05/17 02:08:02;;;;;;;26.00;8.00;;;14.20;99.90;;;;;;5008533;28;20042;-81
2022/05/17 02:10:28;;;;;;;12.95;7.07;;;14.20;99.90;;;;;;5008070;28;20050;-81
2022/05/17 02:12:54;;;;;;;20.55;7.15;;;14.10;99.90;;;;;;5006892;28;20045;-81
2022/05/17 02:15:21;;;;;;;21.10;7.93;;;14.10;99.90;;;;;;5007686;28;20479;-79
2022/05/17 02:17:46;;;;;;;19.00;7.30;;;14.10;99.90;;;;;;5007801;28;20555;-79
2022/05/17 02:20:12;;;;;;;22.20;7.90;;;14.10;99.90;;;;;;5008390;28;20137;-80
2022/05/17 02:22:38;;;;;;;19.52;7.28;;;14.10;99.90;;;;;;5008251;28;20061;-78
2022/05/17 02:25:04;;;;;;;15.95;7.25;;;14.00;99.90;;;;;;5006637;28;20484;-79
2022/05/17 02:27:32;;;;;;;22.23;9.77;;;13.90;99.90;;;;;;5007049;28;20042;-81
2022/05/17 02:29:58;;;;;;;17.00;7.65;;;14.00;99.90;;;;;;5007782;28;20037;-81
2022/05/17 02:32:23;;;;;;;21.90;7.65;;;13.90;99.90;;;;;;4989905;28;20062;-80
2022/05/17 02:34:49;;;;;;;27.50;8.10;;;13.80;99.90;;;;;;5007448;28;20037;-81
2022/05/17 02:37:17;;;;;;;18.65;7.32;;;13.80;99.90;;;;;;5006960;28;20081;-82
2022/05/17 02:39:45;;;;;;;18.88;7.75;;;13.80;99.90;;;;;;5006727;28;20068;-81
2022/05/17 02:42:11;;;;;;;18.95;7.97;;;13.80;99.90;;;;;;5006700;28;20046;-80
2022/05/17 02:44:37;;;;;;;25.90;8.93;;;13.70;99.90;;;;;;5007971;28;20054;-80
2022/05/17 02:47:04;;;;;;;15.82;8.48;;;13.70;99.90;;;;;;5007374;28;20054;-80
2022/05/17 02:49:30;;;;;;;21.88;8.48;;;13.80;99.90;;;;;;5022529;28;20432;-80
2022/05/17 02:51:59;;;;;;;23.55;8.52;;;13.70;99.90;;;;;;5007519;28;20125;-79
2022/05/17 02:54:24;;;;;;;21.25;8.23;;;13.70;99.90;;;;;;5008386;28;20041;-80
2022/05/17 02:56:50;;;;;;;18.35;9.13;;;13.70;99.90;;;;;;5006467;28;20104;-80
2022/05/17 02:59:18;;;;;;;17.35;8.52;;;13.60;99.90;;;;;;5022842;28;20070;-80
2022/05/17 03:01:44;;;;;;;18.08;7.63;;;13.60;99.90;;;;;;5007381;28;20049;-81
2022/05/17 03:04:13;;;;;;;15.50;8.57;;;13.60;99.90;;;;;;5007228;28;20050;-79
2022/05/17 03:06:43;;;;;;;21.17;8.52;;;13.60;99.90;;;;;;5007160;28;20409;-78
2022/05/17 03:09:09;;;;;;;;;;;13.60;99.90;;;;;;5007379;28;20492;-82
2022/05/17 03:11:36;;;;;;;19.30;8.43;;;13.50;99.90;;;;;;5006552;28;19921;-79
2022/05/17 03:14:02;;;;;;;20.50;8.13;;;13.50;99.90;;;;;;5006881;28;20401;-80
2022/05/17 03:16:32;;;;;;;33.65;10.57;;;13.50;99.90;;;;;;5006547;28;20053;-80
2022/05/17 03:18:59;;;;;;;23.13;9.93;;;13.40;99.90;;;;;;5006967;28;20109;-78
2022/05/17 03:21:25;;;;;;;16.98;8.77;;;13.40;99.90;;;;;;5005715;28;20049;-81
2022/05/17 03:23:50;;;;;;;22.40;9.45;;;13.40;99.90;;;;;;5005920;28;20405;-80
2022/05/17 03:26:16;;;;;;;17.98;7.93;;;13.40;99.90;;;;;;5005852;28;20406;-80
2022/05/17 03:28:42;;;;;;;24.58;9.15;;;13.40;99.90;;;;;;5007394;28;20049;-80
2022/05/17 03:31:08;;;;;;;17.02;7.53;;;13.40;99.90;;;;;;5006716;28;20042;-77
2022/05/17 03:33:34;;;;;;;21.48;9.35;;;13.50;99.90;;;;;;5007146;28;20453;-80
2022/05/17 03:36:00;;;;;;;23.80;9.20;;;13.40;99.90;;;;;;5006924;28;20042;-80
2022/05/17 03:38:25;;;;;;;20.02;9.13;;;13.50;99.90;;;;;;5006803;28;20037;-80
2022/05/17 03:40:52;;;;;;;22.63;9.80;;;13.40;99.90;;;;;;5006741;28;20038;-81
2022/05/17 03:43:19;;;;;;;21.27;8.75;;;13.40;99.90;;;;;;5005604;28;20046;-80
2022/05/17 03:45:45;;;;;;;16.33;8.43;;;13.50;99.90;;;;;;5006809;28;20514;-79
2022/05/17 03:48:11;;;;;;;15.57;8.65;;;13.50;99.90;;;;;;5007301;28;20071;-81
2022/05/17 03:50:37;;;;;;;24.35;8.23;;;13.50;99.90;;;;;;5005321;28;20492;-80
2022/05/17 03:53:03;;;;;;;28.00;8.48;;;13.50;99.90;;;;;;5006361;28;20046;-78
2022/05/17 03:55:29;;;;;;;18.45;8.77;;;13.50;99.90;;;;;;5005127;28;20508;-80
2022/05/17 03:57:54;;;;;;;15.93;7.28;;;13.50;99.90;;;;;;5004272;28;20092;-80
2022/05/17 04:00:20;;;;;;;22.30;7.78;;;13.60;99.90;;;;;;5006126;28;20046;-80
2022/05/17 04:02:46;;;;;;;20.65;9.80;;;13.70;99.90;;;;;;5005585;28;20470;-80
2022/05/17 04:05:13;;;;;;;19.95;8.77;;;13.60;99.90;;;;;;5006504;28;20038;-81
2022/05/17 04:07:39;;;;;;;18.65;8.38;;;13.80;99.90;;;;;;5004896;28;20034;-77
2022/05/17 04:10:07;;;;;;;21.52;8.48;;;13.90;99.90;;;;;;5005038;28;20042;-82
2022/05/17 04:12:33;;;;;;;19.35;8.85;;;13.80;99.90;;;;;;5005284;28;20053;-81
2022/05/17 04:14:58;;;;;;;23.67;8.45;;;14.00;99.90;;;;;;5004775;28;20053;-80
2022/05/17 04:17:24;;;;;;;16.27;8.05;;;14.00;99.90;;;;;;5006067;28;20042;-81
2022/05/17 04:19:50;;;;;;;11.93;6.57;;;14.30;99.90;;;;;;5007060;28;20046;-81
2022/05/17 04:22:16;;;;;;;18.98;8.25;;;14.60;99.90;;;;;;5007291;28;20042;-81
2022/05/17 04:24:42;;;;;;;15.50;9.35;;;14.50;99.90;;;;;;5006446;28;20045;-81
2022/05/17 04:27:09;;;;;;;20.75;8.73;;;14.40;99.90;;;;;;5007642;28;20053;-77
2022/05/17 04:29:37;;;;;;;18.48;7.18;;;14.40;99.90;;;;;;5010197;28;20049;-80
2022/05/17 04:32:04;;;;;;;17.25;7.55;;;14.30;99.90;;;;;;5009756;28;20049;-76
2022/05/17 04:34:31;;;;;;;24.60;9.20;;;14.50;99.90;;;;;;5009948;28;20455;-79
2022/05/17 04:36:57;;;;;;;16.17;6.65;;;14.80;99.90;;;;;;5010057;28;20046;-81
2022/05/17 04:39:24;;;;;;;28.40;8.68;;;16.20;99.90;;;;;;5010085;28;20132;-80
2022/05/17 04:41:50;;;;;;;27.02;8.32;;;16.10;99.90;;;;;;5009687;28;20053;-81
2022/05/17 04:44:16;;;;;;;19.52;6.85;;;15.40;99.90;;;;;;5011526;28;20046;-81
2022/05/17 04:46:41;;;;;;;14.40;7.13;;;15.10;99.90;;;;;;5011357;28;20062;-79
2022/05/17 04:49:07;;;;;;;19.75;7.47;;;14.80;99.90;;;;;;5011007;28;20057;-80
2022/05/17 04:51:34;;;;;;;13.85;6.35;;;14.70;99.90;;;;;;5009393;28;20501;-80
2022/05/17 04:54:00;;;;;;;14.73;6.32;;;14.70;99.90;;;;;;5009835;28;20117;-81
2022/05/17 04:56:26;;;;;;;16.15;6.57;;;14.60;99.90;;;;;;5008001;28;20045;-80
2022/05/17 04:58:52;;;;;;;23.38;7.63;;;14.60;99.90;;;;;;5010095;28;20052;-80
2022/05/17 05:01:18;;;;;;;20.50;7.32;;;14.60;99.90;;;;;;5009466;28;20089;-79
2022/05/17 05:03:43;;;;;;;19.30;8.32;;;14.70;99.90;;;;;;5009453;28;20104;-79
2022/05/17 05:06:09;;;;;;;14.70;6.28;;;14.70;99.90;;;;;;5010050;28;20046;-79
2022/05/17 05:08:35;;;;;;;15.48;6.72;;;14.70;99.90;;;;;;5009683;28;20519;-80
2022/05/17 05:11:00;;;;;;;21.67;8.93;;;14.80;99.90;;;;;;5008354;28;20049;-77
2022/05/17 05:13:27;;;;;;;18.60;7.45;;;14.80;99.90;;;;;;5009113;28;20565;-80
2022/05/17 05:15:56;;;;;;;16.75;6.72;;;14.80;99.90;;;;;;5009117;28;20042;-79
2022/05/17 05:18:22;;;;;;;14.63;6.63;;;14.90;99.90;;;;;;5008727;28;20453;-79
2022/05/17 05:20:48;;;;;;;18.50;7.22;;;14.90;99.90;;;;;;5009120;28;20053;-81
2022/05/17 05:23:13;;;;;;;16.35;6.60;;;15.10;99.90;;;;;;5008483;28;20408;-81
2022/05/17 05:25:40;;;;;;;16.83;5.78;;;15.10;99.90;;;;;;5009184;28;20658;-80
2022/05/17 05:28:07;;;;;;;16.70;5.82;;;15.30;99.90;;;;;;5008256;28;20781;-80
2022/05/17 05:30:33;;;;;;;17.52;7.10;;;15.40;99.90;;;;;;5009300;28;20042;-79
2022/05/17 05:32:59;;;;;;;19.73;8.27;;;15.40;99.90;;;;;;5008682;28;20540;-81
2022/05/17 05:35:25;;;;;;;25.38;6.57;;;15.60;99.90;;;;;;5009010;28;20041;-80
2022/05/17 05:37:52;;;;;;;17.40;6.47;;;15.60;99.90;;;;;;5008704;28;20420;-80
2022/05/17 05:40:18;;;;;;;20.25;6.88;;;15.60;99.90;;;;;;5009030;28;20142;-81
2022/05/17 05:42:45;;;;;;;26.73;7.30;;;15.80;99.90;;;;;;5008387;28;20304;-80
2022/05/17 05:45:11;;;;;;;20.92;6.90;;;15.80;99.90;;;;;;5008672;28;20415;-80
2022/05/17 05:47:37;;;;;;;22.00;6.90;;;15.70;99.90;;;;;;5008718;28;20046;-81
2022/05/17 05:50:03;;;;;;;21.20;6.15;;;15.80;99.90;;;;;;5008416;28;20065;-78
2022/05/17 05:52:29;;;;;;;18.10;6.35;;;15.70;99.90;;;;;;5008651;28;20084;-79
2022/05/17 05:54:55;;;;;;;22.08;6.28;;;15.70;99.90;;;;;;5008152;28;20046;-80
2022/05/17 05:57:21;;;;;;;18.48;6.28;;;15.70;99.90;;;;;;5006981;28;20050;-77
2022/05/17 05:59:46;;;;;;;19.33;6.25;;;15.80;99.90;;;;;;5007936;28;20133;-77
2022/05/17 06:02:13;;;;;;;16.73;5.68;;;15.70;99.90;;;;;;5008484;28;20392;-78
2022/05/17 06:04:39;;;;;;;15.80;5.30;;;15.70;99.90;;;;;;5008189;28;20073;-76
2022/05/17 06:07:05;;;;;;;27.55;7.65;;;15.70;99.90;;;;;;5008236;28;20092;-79
2022/05/17 06:09:31;;;;;;;19.38;7.03;;;15.80;99.90;;;;;;5023346;28;20446;-78
2022/05/17 06:11:56;;;;;;;15.93;5.85;;;15.80;99.90;;;;;;5006907;28;20042;-80
2022/05/17 06:14:22;;;;;;;20.50;6.47;;;15.90;99.90;;;;;;5008012;28;20902;-77
2022/05/17 06:16:49;;;;;;;17.17;7.32;;;15.90;99.90;;;;;;5007511;28;20088;-79
2022/05/17 06:19:16;;;;;;;21.00;6.88;;;15.90;99.90;;;;;;5006979;28;20318;-79
2022/05/17 06:21:41;;;;;;;13.52;5.13;;;15.90;99.90;;;;;;5006948;28;20048;-80
2022/05/17 06:24:07;;;;;;;20.90;7.07;;;15.90;99.90;;;;;;5022799;28;20049;-79
2022/05/17 06:26:33;;;;;;;15.68;6.40;;;15.90;99.90;;;;;;5006887;28;20046;-78
2022/05/17 06:28:59;;;;;;;16.90;5.75;;;15.90;99.90;;;;;;5007358;28;20050;-78
2022/05/17 06:31:25;;;;;;;13.88;6.00;;;16.00;99.90;;;;;;5006329;28;20061;-78
2022/05/17 06:33:51;;;;;;;17.38;6.30;;;16.10;99.90;;;;;;5007703;28;20519;-78
2022/05/17 06:36:16;;;;;;;20.95;5.65;;;16.00;99.90;;;;;;5007583;28;20034;-78
2022/05/17 06:38:42;;;;;;;22.58;5.30;;;16.10;99.90;;;;;;5007825;28;20038;-77
2022/05/17 06:41:08;;;;;;;19.88;6.32;;;16.20;99.90;;;;;;5005074;28;20489;-77
2022/05/17 06:43:34;;;;;;;18.20;6.93;;;16.30;99.90;;;;;;5006592;28;20141;-78
2022/05/17 06:46:03;;;;;;;19.15;5.38;;;16.40;99.90;;;;;;5006026;28;20046;-78
2022/05/17 06:48:30;;;;;;;26.38;7.40;;;16.50;99.90;;;;;;5022344;28;20046;-78
2022/05/17 06:51:07;;;;;;;14.63;4.65;;;16.60;99.90;;;;;;5005992;28;20041;-79
2022/05/17 06:53:33;;;;;;;20.48;5.72;;;16.50;99.90;;;;;;5007496;28;20117;-79
2022/05/17 06:55:59;;;;;;;22.10;5.78;;;16.60;99.90;;;;;;5004833;28;20549;-78
2022/05/17 06:58:28;;;;;;;13.82;5.40;;;16.80;99.90;;;;;;5006654;28;20532;-79
2022/05/17 07:00:55;;;;;;;23.98;6.65;;;16.80;99.90;;;;;;5007279;28;20133;-79
2022/05/17 07:03:21;;;;;;;18.27;6.47;;;17.10;99.90;;;;;;5007404;28;20100;-77
2022/05/17 07:05:47;;;;;;;15.02;6.70;;;18.10;99.90;;;;;;5006766;28;20053;-79
2022/05/17 07:08:12;;;;;;;14.02;6.65;;;18.80;99.90;;;;;;5007476;28;20129;-78
2022/05/17 07:13:22;;;;;;;15.50;6.05;;;19.50;99.90;;;;;;5005387;28;20065;-77
2022/05/17 07:15:49;;;;;;;15.82;5.28;;;19.80;99.90;;;;;;5005348;28;20057;-77
2022/05/17 07:18:20;;;;;;;17.38;5.40;;;20.30;99.90;;;;;;5007270;28;20428;-77
2022/05/17 07:20:47;;;;;;;17.67;6.47;;;20.60;99.90;;;;;;5007205;28;20472;-79
2022/05/17 07:23:14;;;;;;;12.25;4.95;;;20.20;99.90;;;;;;5007178;28;20104;-78
2022/05/17 07:25:41;;;;;;;18.27;4.97;;;20.80;99.90;;;;;;5005986;28;20112;-78
2022/05/17 07:28:08;;;;;;;18.65;7.05;;;21.50;99.90;;;;;;5006773;28;20085;-79
2022/05/17 07:30:33;;;;;;;15.18;5.85;;;21.20;99.90;;;;;;5006959;28;20088;-79
2022/05/17 07:32:59;;;;;;;14.27;4.43;;;21.30;99.90;;;;;;5005330;28;20042;-78
2022/05/17 07:35:25;;;;;;;22.50;6.18;;;20.80;99.90;;;;;;5006351;28;20389;-78
2022/05/17 07:37:50;;;;;;;14.48;4.82;;;20.20;99.90;;;;;;5006351;28;20074;-78
2022/05/17 07:40:17;;;;;;;16.70;5.82;;;19.70;99.90;;;;;;5007056;28;20060;-80
2022/05/17 07:42:43;;;;;;;19.40;5.30;;;19.40;99.90;;;;;;5005979;28;20049;-78
2022/05/17 07:45:10;;;;;;;15.10;5.70;;;19.40;99.90;;;;;;5006232;28;20377;-78
2022/05/17 07:47:36;;;;;;;22.73;5.72;;;19.50;99.90;;;;;;5006482;28;20078;-79
2022/05/17 07:50:03;;;;;;;13.80;5.03;;;19.40;99.90;;;;;;5021179;28;20512;-78
2022/05/17 07:52:29;;;;;;;14.32;5.07;;;19.50;99.90;;;;;;5006339;28;20050;-78
2022/05/17 07:54:55;;;;;;;17.20;6.15;;;19.70;99.90;;;;;;5006625;28;20125;-78
2022/05/17 07:57:22;;;;;;;12.85;4.15;;;19.40;99.90;;;;;;5004220;28;20046;-78
2022/05/17 07:59:48;;;;;;;13.40;4.95;;;19.40;99.90;;;;;;5006520;28;20045;-78
2022/05/17 08:02:13;;;;;;;10.48;4.32;;;19.40;99.90;;;;;;5006460;28;20117;-79
2022/05/17 08:04:39;;;;;;;12.65;3.67;;;19.80;99.90;;;;;;5006394;28;20493;-78
2022/05/17 08:07:05;;;;;;;12.48;4.22;;;20.00;99.90;;;;;;5006152;28;20038;-79
2022/05/17 08:09:30;;;;;;;10.57;4.03;;;19.70;99.90;;;;;;5006301;28;20120;-78
2022/05/17 08:11:56;;;;;;;11.73;4.93;;;19.70;99.90;;;;;;5004968;28;20049;-77
2022/05/17 08:14:22;;;;;;;14.45;4.50;;;19.80;99.90;;;;;;5005778;28;20424;-77
2022/05/17 08:16:48;;;;;;;9.88;3.58;;;20.10;99.90;;;;;;5005759;28;20049;-77
2022/05/17 08:19:14;;;;;;;12.75;4.40;;;20.20;99.90;;;;;;5006427;28;20432;-78
2022/05/17 08:21:40;;;;;;;10.07;4.07;;;20.10;99.90;;;;;;4988211;28;20229;-79
2022/05/17 08:24:07;;;;;;;12.68;3.95;;;20.40;99.90;;;;;;5005579;28;20505;-78
2022/05/17 08:29:17;;;;;;;17.25;5.80;;;20.70;99.90;;;;;;5005763;28;20061;-78
2022/05/17 08:33:14;;;;;;;13.48;4.97;;;20.50;99.90;;;;;;5006480;28;20054;-77
2022/05/17 08:34:28;;;;;;;13.40;3.97;;;20.30;99.90;;;;;;5005646;28;20381;-76
2022/05/17 08:36:54;;;;;;;12.85;4.03;;;20.50;99.90;;;;;;5005918;28;20068;-79
2022/05/17 08:39:20;;;;;;;9.43;3.20;;;20.60;99.90;;;;;;5005431;28;20053;-77
2022/05/17 08:41:52;;;;;;;11.43;4.15;;;20.40;99.90;;;;;;5005253;28;20042;-76
2022/05/17 08:44:27;;;;;;;15.98;4.15;;;20.70;99.90;;;;;;5005802;28;20042;-77
2022/05/17 08:47:17;;;;;;;12.65;3.60;;;20.80;99.90;;;;;;5006183;28;20397;-77
2022/05/17 08:49:55;;;;;;;12.85;3.58;;;21.00;99.90;;;;;;5005898;28;20107;-77
2022/05/17 08:52:24;;;;;;;12.90;2.83;;;21.10;99.90;;;;;;5005340;28;20054;-76
2022/05/17 08:54:52;;;;;;;11.80;3.10;;;20.90;99.90;;;;;;5004355;28;20508;-77
2022/05/17 08:57:33;;;;;;;15.50;4.18;;;21.00;99.90;;;;;;5004912;28;20049;-76
2022/05/17 09:00:15;;;;;;;12.50;3.75;;;21.30;99.90;;;;;;5005815;28;20042;-76
2022/05/17 09:02:45;;;;;;;18.08;5.22;;;21.20;99.90;;;;;;5005854;28;20042;-79
2022/05/17 09:05:49;;;;;;;15.73;4.60;;;21.00;99.90;;;;;;5004060;28;20088;-77
2022/05/17 09:08:33;;;;;;;9.57;3.00;;;21.10;99.90;;;;;;4993950;28;20050;-77
2022/05/17 09:11:23;;;;;;;15.50;4.60;;;21.20;99.90;;;;;;5004610;28;20046;-78
2022/05/17 09:14:09;;;;;;;11.65;4.85;;;21.40;99.90;;;;;;5007246;28;20125;-77
2022/05/17 09:16:55;;;;;;;8.07;2.83;;;21.40;99.90;;;;;;5009374;28;20038;-79
2022/05/17 09:19:21;;;;;;;16.35;3.83;;;21.60;99.90;;;;;;5007422;28;20096;-78
2022/05/17 09:21:50;;;;;;;12.48;2.88;;;21.70;99.90;;;;;;5009181;28;20042;-75
2022/05/17 09:24:19;;;;;;;12.05;4.38;;;21.50;99.90;;;;;;5009634;28;20046;-80
2022/05/17 09:27:20;;;;;;;12.50;3.13;;;21.40;99.90;;;;;;5008649;28;20096;-79
2022/05/17 09:29:47;;;;;;;13.15;4.65;;;21.60;99.90;;;;;;5009491;28;20045;-79
2022/05/17 09:32:24;;;;;;;10.55;3.17;;;21.30;99.90;;;;;;5009346;28;20081;-78
2022/05/17 09:34:59;;;;;;;15.98;3.47;;;21.40;99.90;;;;;;5008630;28;20049;-78
2022/05/17 09:37:34;;;;;;;12.77;3.97;;;21.50;99.90;;;;;;5008617;28;20066;-78
2022/05/17 09:40:05;;;;;;;8.80;4.15;;;21.60;99.90;;;;;;5007105;28;20065;-75
2022/05/17 09:42:35;;;;;;;16.05;6.00;;;21.20;99.90;;;;;;5008398;28;20046;-77
2022/05/17 09:45:10;;;;;;;11.20;3.35;;;21.20;99.90;;;;;;5008317;28;20417;-77
2022/05/17 09:47:55;;;;;;;13.07;2.92;;;21.40;99.90;;;;;;5009050;28;20463;-79
2022/05/17 09:53:10;;;;;;;8.45;3.00;;;21.20;99.90;;;;;;5008983;28;20068;-76
2022/05/17 09:55:37;;;;;;;13.00;3.13;;;21.40;99.90;;;;;;5007380;28;20157;-76
2022/05/17 09:58:11;;;;;;;16.13;3.92;;;21.50;99.90;;;;;;5007963;28;20037;-75
2022/05/17 10:00:42;;;;;;;7.03;3.00;;;21.60;99.90;;;;;;5008181;28;20046;-77
2022/05/17 10:03:35;;;;;;;13.00;4.25;;;21.80;99.90;;;;;;5008133;28;20088;-77
2022/05/17 10:06:14;;;;;;;11.52;3.55;;;21.90;99.90;;;;;;5008509;28;20112;-75
2022/05/17 10:08:59;;;;;;;11.40;4.63;;;22.00;99.90;;;;;;5022114;28;20053;-76
2022/05/17 10:11:27;;;;;;;11.50;2.85;;;22.00;99.90;;;;;;5007176;28;20818;-77
2022/05/17 10:14:12;;;;;;;12.50;3.03;;;22.20;99.90;;;;;;5007923;28;20046;-77
2022/05/17 10:16:45;;;;;;;12.65;4.45;;;22.10;99.90;;;;;;5008051;28;20053;-76
2022/05/17 10:19:22;;;;;;;10.05;2.40;;;22.20;99.90;;;;;;5007838;28;20053;-76
2022/05/17 10:22:01;;;;;;;6.65;2.60;;;22.20;99.90;;;;;;5008174;28;20038;-76
2022/05/17 10:24:53;;;;;;;11.63;3.10;;;22.30;99.90;;;;;;5007218;28;20050;-76
2022/05/17 10:27:44;;;;;;;11.52;3.15;;;22.10;99.90;;;;;;5007425;28;20078;-76
2022/05/17 10:30:15;;;;;;;11.85;2.97;;;22.20;99.90;;;;;;5022408;28;20049;-77
2022/05/17 10:33:03;;;;;;;6.78;2.60;;;22.30;99.90;;;;;;5006180;28;20048;-76
2022/05/17 10:35:34;;;;;;;11.02;2.72;;;22.50;99.90;;;;;;5007817;28;20050;-77
2022/05/17 10:38:22;;;;;;;12.52;3.83;;;22.70;99.90;;;;;;5007470;28;20046;-77
2022/05/17 10:40:52;;;;;;;7.05;1.83;;;22.60;99.90;;;;;;5006878;28;20120;-77
2022/05/17 10:43:32;;;;;;;11.27;2.78;;;22.70;99.90;;;;;;5007897;28;20026;-76
2022/05/17 10:46:18;;;;;;;8.45;2.10;;;22.40;99.90;;;;;;5007429;28;20519;-77
2022/05/17 10:49:02;;;;;;;7.95;1.95;;;22.50;99.90;;;;;;5007824;28;20080;-77
2022/05/17 10:51:28;;;;;;;7.55;2.13;;;22.60;99.90;;;;;;5007122;28;20064;-77
2022/05/17 10:54:31;;;;;;;7.15;1.55;;;22.60;99.90;;;;;;5005822;28;20045;-77
2022/05/17 10:57:17;;;;;;;12.60;2.03;;;22.80;99.90;;;;;;5005057;28;20050;-77
2022/05/17 11:00:01;;;;;;;5.22;1.85;;;23.00;99.90;;;;;;5007119;28;20129;-77
2022/05/17 11:02:48;;;;;;;8.32;2.30;;;23.10;99.90;;;;;;5007057;28;20496;-79
2022/05/17 11:05:24;;;;;;;6.45;1.95;;;23.20;99.90;;;;;;5007657;28;20050;-77
2022/05/17 11:07:53;;;;;;;6.03;1.70;;;23.10;99.90;;;;;;5006714;28;20493;-78
2022/05/17 11:10:27;;;;;;;8.05;2.38;;;23.20;99.90;;;;;;5005847;28;20046;-78
2022/05/17 11:13:02;;;;;;;5.05;1.67;;;23.10;99.90;;;;;;5005821;28;20049;-78
2022/05/17 11:15:35;;;;;;;9.65;2.15;;;23.20;99.90;;;;;;5006726;28;20493;-77
2022/05/17 11:18:26;;;;;;;7.50;2.53;;;23.20;99.90;;;;;;5005477;28;20058;-77
2022/05/17 11:21:07;;;;;;;12.30;2.42;;;23.40;99.90;;;;;;5006633;28;20045;-77
2022/05/17 11:23:50;;;;;;;8.10;1.92;;;23.30;99.90;;;;;;5006976;28;20053;-78
2022/05/17 11:26:35;;;;;;;8.18;1.73;;;23.30;99.90;;;;;;5006483;28;20435;-76
2022/05/17 11:29:19;;;;;;;7.38;2.40;;;23.40;99.90;;;;;;5006343;28;20042;-76
2022/05/17 11:31:56;;;;;;;4.60;1.42;;;23.40;99.90;;;;;;5007388;28;20041;-77
2022/05/17 11:34:29;;;;;;;6.05;1.55;;;23.40;99.90;;;;;;5005008;28;20453;-78
2022/05/17 11:36:57;;;;;;;5.32;1.48;;;23.50;99.90;;;;;;5006008;28;20158;-77
2022/05/17 11:39:35;;;;;;;6.75;1.52;;;23.60;99.90;;;;;;5006036;28;20049;-77
2022/05/17 11:42:30;;;;;;;6.15;1.70;;;23.70;99.90;;;;;;5005282;28;20042;-76
2022/05/17 11:45:15;;;;;;;7.00;1.45;;;23.20;99.90;;;;;;5006723;28;20038;-77
2022/05/17 11:47:41;;;;;;;9.95;2.25;;;23.50;99.90;;;;;;5007316;28;20042;-78
2022/05/17 11:50:16;;;;;;;6.80;1.60;;;23.90;99.90;;;;;;5004956;28;20065;-78
2022/05/17 11:52:44;;;;;;;10.60;2.60;;;24.00;99.90;;;;;;5006780;28;20061;-77
2022/05/17 11:55:12;;;;;;;6.65;2.63;;;24.00;99.90;;;;;;5005853;28;20484;-77
2022/05/17 11:57:38;;;;;;;7.82;1.42;;;24.00;99.90;;;;;;5010071;28;20042;-78
2022/05/17 12:00:27;;;;;;;4.03;1.65;;;24.00;99.90;;;;;;5009738;28;20050;-77
2022/05/17 12:02:58;;;;;;;5.17;1.33;;;24.20;99.90;;;;;;5010762;28;20052;-79
2022/05/17 12:05:42;;;;;;;3.47;1.00;;;24.10;99.90;;;;;;5009780;28;20339;-78
2022/05/17 12:08:26;;;;;;;7.88;1.42;;;24.10;99.90;;;;;;5009612;28;20054;-78
2022/05/17 12:11:09;;;;;;;4.57;1.58;;;24.30;99.90;;;;;;5008863;28;20044;-78
2022/05/17 12:13:58;;;;;;;5.85;1.48;;;24.10;99.90;;;;;;5011477;28;20050;-78
2022/05/17 12:16:31;;;;;;;6.45;1.50;;;24.00;99.90;;;;;;5010405;28;20508;-78
2022/05/17 12:19:14;;;;;;;7.25;1.60;;;23.90;99.90;;;;;;5011122;28;20069;-78
2022/05/17 12:21:41;;;;;;;6.03;2.10;;;23.70;99.90;;;;;;5010616;28;20045;-78
2022/05/17 12:24:54;;;;;;;4.72;1.10;;;23.30;99.90;;;;;;5007801;28;20065;-78
2022/05/17 12:27:32;;;;;;;5.63;2.40;;;23.80;99.90;;;;;;4964343;28;20060;-77
2022/05/17 12:32:50;;;;;;;5.10;1.13;;;24.00;99.10;;;;;;4997334;28;20046;-78
2022/05/17 12:35:26;;;;;;;5.82;1.15;;;24.00;99.90;;;;;;5005898;28;20069;-77
2022/05/17 12:37:53;;;;;;;6.85;1.45;;;24.00;99.60;;;;;;5005632;28;20409;-77
2022/05/17 12:43:28;;;;;;;13.43;1.98;;;23.80;98.90;;;;;;5005585;28;20053;-76
2022/05/17 12:46:01;;;;;;;6.85;1.20;;;23.70;99.70;;;;;;5005347;28;20069;-78
2022/05/17 12:48:35;;;;;;;5.57;1.17;;;24.10;99.90;;;;;;5008532;28;20572;-78
2022/05/17 12:51:07;;;;;;;7.00;1.75;;;24.30;99.90;;;;;;5009315;28;20050;-77
2022/05/17 12:53:43;;;;;;;6.40;2.13;;;24.10;99.90;;;;;;5009684;28;20404;-77
2022/05/17 12:56:12;;;;;;;6.40;1.60;;;24.20;99.90;;;;;;5008366;28;20034;-77
2022/05/17 12:58:53;;;;;;;4.93;1.27;;;24.40;99.90;;;;;;5008293;28;20041;-78
2022/05/17 13:01:52;;;;;;;8.32;1.58;;;24.20;98.90;;;;;;5009184;28;20061;-77
2022/05/17 13:04:24;;;;;;;8.65;1.45;;;24.20;99.90;;;;;;5009483;28;20438;-76
2022/05/17 13:06:51;;;;;;;8.75;1.73;;;24.00;99.90;;;;;;5024357;28;20133;-76
2022/05/17 13:09:24;;;;;;;7.70;1.27;;;24.20;99.90;;;;;;5008873;28;20080;-74
2022/05/17 13:11:52;;;;;;;6.00;1.40;;;24.40;98.50;;;;;;4990377;28;20046;-76
2022/05/17 13:14:27;;;;;;;7.15;1.48;;;24.40;99.40;;;;;;5009292;28;20050;-78